Estación meteorológica de Montseny - Vallcàrquera (Vallès Oriental, Parc Natural del Montseny)

Consulta los datos en tiempo real de la estación meteorológica de Montseny - Vallcàrquera





Hora UTC 01:45
Temperatura 20.5 ºC
Humedad 83.3 %
Pluja 0.0 mm
Velocidad viento 1.2 km/h
Dirección viento ENE
Radiación solar 0.1 W/m²

Datos diarios 2026-09-01



Hora UTC (invierno +1h; verano +2h)
Temperatura (ºC) Humedad (%) Velocidad viento (km/h) Precipitación (mm) Radiación solar (W/m²)
Hora UTC Aire Humedad Vel. Dir. Vel. Max Dir. Intent. máx 5 min. Rad. Sol.
00:05 18.8 88.9 2.6 ENE 2.6 NE 0.0 0.0
00:10 18.9 88.5 1.2 N 3.2 NNE 0.0 0.0
00:15 18.8 88.6 2.6 E 5.3 ENE 0.0 0.0
00:20 18.9 88.6 2.9 ENE 4.6 ENE 0.0 0.0
00:25 18.9 88.0 2.4 NE 4.2 ENE 0.0 0.0
00:30 18.9 88.0 0.7 NNE 2.8 NE 0.0 0.0
00:35 18.9 88.6 1.2 ENE 2.8 E 0.0 0.0
00:40 18.9 88.7 1.7 NE 3.5 ENE 0.0 0.0
00:45 19.0 88.3 1.5 ENE 3.9 ENE 0.0 0.5
00:50 19.1 87.6 1.8 ENE 3.9 ENE 0.0 0.4
00:55 19.3 87.0 2.0 ENE 4.2 ENE 0.0 0.6
01:00 19.4 86.0 2.4 ENE 3.5 ENE 0.0 0.7
01:05 19.6 85.3 2.4 NE 4.2 ENE 0.0 0.6
01:10 19.8 84.8 2.6 NE 4.6 NE 0.0 0.6
01:15 19.9 84.5 1.3 NE 2.8 ENE 0.0 0.5
01:20 20.1 83.9 2.1 NE 4.2 NE 0.0 0.6
01:25 20.3 83.3 1.4 NE 2.8 NE 0.0 0.4
01:30 20.3 83.3 3.1 ENE 4.9 E 0.0 0.2
01:35 20.3 83.3 3.4 ENE 5.3 E 0.0 0.1
01:40 20.4 83.2 2.5 ENE 4.9 E 0.0 0.1
01:45 20.5 83.3 1.2 ENE 3.9 NE 0.0 0.1
Máxima 20.5 88.9 3.4 ENE 5.3 E 0.0 0.7
Mínima 18.8 83.2
Total 0.0